Time;durP1;ratioP1;P1;durP2;ratioP2;P2;SDS_P1;SDS_P2;PMS_P1;PMS_P2;Temp;Humidity;BMP_temperature;BMP_pressure;BME280_temperature;BME280_humidity;BME280_pressure;Samples;Min_cycle;Max_cycle;Signal;HPM_P1;HPM_P2
2022/06/21 00:01:19;;;;;;;16.83;7.13;;;13.70;99.90;;;;;;5079724;28;25098;-60
2022/06/21 00:03:47;;;;;;;16.92;7.40;;;13.60;99.90;;;;;;5077351;28;25067;-60
2022/06/21 00:06:14;;;;;;;20.75;6.75;;;13.50;99.90;;;;;;5077875;28;25063;-59
2022/06/21 00:08:40;;;;;;;17.38;6.15;;;13.70;99.90;;;;;;5080844;28;25066;-59
2022/06/21 00:11:30;;;;;;;17.45;5.88;;;13.80;99.90;;;;;;5066941;28;25065;-61
2022/06/21 00:13:56;;;;;;;20.33;6.82;;;13.70;99.90;;;;;;5078237;28;25077;-59
2022/06/21 00:16:23;;;;;;;11.82;6.57;;;13.60;99.90;;;;;;5070740;28;25091;-60
2022/06/21 00:18:50;;;;;;;15.68;6.57;;;13.50;99.90;;;;;;5080312;28;25083;-61
2022/06/21 00:21:18;;;;;;;14.57;7.75;;;13.50;99.90;;;;;;5076858;28;25176;-60
2022/06/21 00:23:44;;;;;;;16.98;8.20;;;13.40;99.90;;;;;;5074697;28;25145;-59
2022/06/21 00:26:12;;;;;;;20.50;8.13;;;13.30;99.90;;;;;;5073940;28;25072;-60
2022/06/21 00:28:39;;;;;;;16.10;7.80;;;13.30;99.90;;;;;;5081766;28;25112;-60
2022/06/21 00:31:23;;;;;;;20.27;8.38;;;13.30;99.90;;;;;;5075578;28;25052;-59
2022/06/21 00:33:49;;;;;;;18.13;7.97;;;13.30;99.90;;;;;;5079776;28;25064;-60
2022/06/21 00:36:23;;;;;;;18.17;7.78;;;13.40;99.90;;;;;;5061070;28;25051;-60
2022/06/21 00:38:50;;;;;;;18.30;8.57;;;13.40;99.90;;;;;;5075093;28;25097;-59
2022/06/21 00:41:19;;;;;;;18.02;7.97;;;13.30;99.90;;;;;;5059086;28;25100;-60
2022/06/21 00:43:49;;;;;;;20.70;7.38;;;13.30;99.90;;;;;;5079633;28;25075;-59
2022/06/21 00:46:37;;;;;;;18.45;9.00;;;13.20;99.90;;;;;;5080031;28;25120;-60
2022/06/21 00:49:06;;;;;;;19.00;8.23;;;13.20;99.90;;;;;;5070661;28;25118;-60
2022/06/21 00:51:39;;;;;;;17.17;8.80;;;13.20;99.90;;;;;;5081423;28;25141;-59
2022/06/21 00:54:15;;;;;;;19.00;8.75;;;13.20;99.90;;;;;;5081775;28;25085;-60
2022/06/21 00:57:12;;;;;;;18.50;8.98;;;13.10;99.90;;;;;;5058320;28;25055;-59
2022/06/21 00:59:38;;;;;;;14.73;9.05;;;13.30;99.90;;;;;;5073823;28;25060;-59
2022/06/21 01:02:18;;;;;;;22.05;9.05;;;13.20;99.90;;;;;;5076462;28;25123;-60
2022/06/21 01:04:48;;;;;;;21.45;9.50;;;13.20;99.90;;;;;;5073416;28;25084;-61
2022/06/21 01:07:14;;;;;;;20.85;9.27;;;13.10;99.90;;;;;;5070759;28;25072;-60
2022/06/21 01:09:46;;;;;;;26.77;10.85;;;13.10;99.90;;;;;;5069615;28;25064;-60
2022/06/21 01:12:17;;;;;;;21.35;10.13;;;13.00;99.90;;;;;;5077706;28;25103;-59
2022/06/21 01:15:00;;;;;;;22.48;9.52;;;13.00;99.90;;;;;;5082610;28;25072;-60
2022/06/21 01:17:28;;;;;;;20.90;9.43;;;13.10;99.90;;;;;;5084957;28;25074;-60
2022/06/21 01:20:00;;;;;;;18.05;9.07;;;13.10;99.90;;;;;;5074979;28;25104;-59
2022/06/21 01:23:08;;;;;;;24.95;11.60;;;13.10;99.90;;;;;;5043808;28;25062;-60
2022/06/21 01:25:50;;;;;;;24.52;10.63;;;13.00;99.90;;;;;;5077932;28;25101;-60
2022/06/21 01:28:16;;;;;;;17.58;10.68;;;13.00;99.90;;;;;;5077781;28;25160;-60
2022/06/21 01:30:45;;;;;;;17.75;9.95;;;13.00;99.90;;;;;;5080049;28;25134;-60
2022/06/21 01:33:17;;;;;;;19.58;10.52;;;13.10;99.90;;;;;;5082591;28;25130;-60
2022/06/21 01:35:48;;;;;;;16.20;10.00;;;13.20;99.90;;;;;;5076078;28;25079;-60
2022/06/21 01:38:19;;;;;;;21.13;9.73;;;13.20;99.90;;;;;;5081261;28;25067;-59
2022/06/21 01:40:51;;;;;;;21.77;10.07;;;13.30;99.90;;;;;;5077012;28;25099;-60
2022/06/21 01:43:22;;;;;;;18.93;10.27;;;13.40;99.90;;;;;;5074922;28;25081;-60
2022/06/21 01:46:00;;;;;;;17.58;11.60;;;13.40;99.90;;;;;;5080191;28;25095;-60
2022/06/21 01:48:32;;;;;;;19.58;11.05;;;13.40;99.90;;;;;;5080547;28;25122;-59
2022/06/21 01:51:05;;;;;;;23.98;10.75;;;13.40;99.90;;;;;;5082733;28;25107;-60
2022/06/21 01:53:32;;;;;;;26.27;12.82;;;13.30;99.90;;;;;;5082696;28;25144;-61
2022/06/21 01:56:01;;;;;;;18.05;10.88;;;13.20;99.90;;;;;;5079389;28;25057;-60
2022/06/21 01:58:30;;;;;;;17.20;10.10;;;13.10;99.90;;;;;;5083364;28;25129;-60
2022/06/21 02:01:04;;;;;;;19.27;10.80;;;13.20;99.90;;;;;;5084014;28;25066;-59
2022/06/21 02:03:33;;;;;;;23.42;10.20;;;13.20;99.90;;;;;;5079842;28;25028;-59
2022/06/21 02:06:05;;;;;;;22.48;10.55;;;13.20;99.90;;;;;;5076719;28;25112;-59
2022/06/21 02:08:40;;;;;;;17.42;10.63;;;13.10;99.90;;;;;;5071781;28;25078;-59
2022/06/21 02:11:14;;;;;;;27.35;11.38;;;13.20;99.90;;;;;;5070101;28;25113;-60
2022/06/21 02:14:28;;;;;;;18.73;11.52;;;13.10;99.90;;;;;;5072252;28;25136;-59
2022/06/21 02:16:39;;;;;;;20.17;11.63;;;13.10;99.90;;;;;;5066572;28;25139;-60
2022/06/21 02:19:18;;;;;;;22.63;11.23;;;13.20;99.90;;;;;;5074351;28;25093;-59
2022/06/21 02:21:43;;;;;;;22.35;11.95;;;13.20;99.90;;;;;;5084242;28;25152;-60
2022/06/21 02:24:14;;;;;;;19.77;10.77;;;13.10;99.90;;;;;;5080754;28;25062;-60
2022/06/21 02:26:40;;;;;;;18.27;11.52;;;13.20;99.90;;;;;;5087542;28;25122;-60
2022/06/21 02:29:06;;;;;;;21.23;11.02;;;13.30;99.90;;;;;;5076751;28;25095;-59
2022/06/21 02:31:32;;;;;;;19.00;11.85;;;13.30;99.90;;;;;;5077572;28;25062;-59
2022/06/21 02:34:01;;;;;;;26.10;11.75;;;13.30;99.90;;;;;;5085463;28;25059;-59
2022/06/21 02:36:32;;;;;;;25.20;11.90;;;13.20;99.90;;;;;;5082098;28;25139;-60
2022/06/21 02:39:01;;;;;;;28.90;12.85;;;13.00;99.90;;;;;;5085040;28;25049;-60
2022/06/21 02:41:36;;;;;;;33.13;15.23;;;12.80;99.90;;;;;;5082313;28;25130;-64
2022/06/21 02:44:17;;;;;;;28.50;13.65;;;12.70;99.90;;;;;;5082065;28;25069;-60
2022/06/21 02:46:48;;;;;;;24.15;12.57;;;12.70;99.90;;;;;;5078009;28;25064;-59
2022/06/21 02:49:34;;;;;;;17.52;11.57;;;12.80;99.90;;;;;;5073431;28;25060;-59
2022/06/21 02:52:15;;;;;;;28.23;12.32;;;12.80;99.90;;;;;;5076499;28;25150;-60
2022/06/21 02:55:07;;;;;;;23.40;11.77;;;12.80;99.90;;;;;;5075093;28;25084;-60
2022/06/21 02:57:39;;;;;;;25.27;11.85;;;12.70;99.90;;;;;;5077906;28;25070;-59
2022/06/21 03:00:12;;;;;;;23.60;12.32;;;12.80;99.90;;;;;;5085993;28;25054;-60
2022/06/21 03:02:38;;;;;;;24.92;11.98;;;12.70;99.90;;;;;;5082227;28;25103;-60
2022/06/21 03:05:11;;;;;;;24.02;12.70;;;12.70;99.90;;;;;;5073878;28;25104;-60
2022/06/21 03:07:38;;;;;;;;;;;12.70;99.90;;;;;;5071172;28;25074;-59
2022/06/21 03:10:07;;;;;;;24.70;11.50;;;12.70;99.90;;;;;;5082012;28;25055;-59
2022/06/21 03:12:35;;;;;;;18.83;11.50;;;12.70;99.90;;;;;;5078358;28;25109;-59
2022/06/21 03:15:11;;;;;;;18.17;8.68;;;12.90;99.90;;;;;;5080906;28;25079;-60
2022/06/21 03:18:00;;;;;;;20.83;10.88;;;12.90;99.90;;;;;;5079687;28;25070;-60
2022/06/21 03:20:27;;;;;;;20.65;11.55;;;12.90;99.90;;;;;;5085340;28;25053;-59
2022/06/21 03:22:54;;;;;;;21.65;10.88;;;12.90;99.90;;;;;;5086641;28;25058;-60
2022/06/21 03:25:42;;;;;;;21.00;10.60;;;12.90;99.90;;;;;;5078739;28;25066;-60
2022/06/21 03:28:26;;;;;;;26.50;10.40;;;12.90;99.90;;;;;;5080654;28;25060;-64
2022/06/21 03:31:16;;;;;;;16.73;9.80;;;12.80;99.90;;;;;;5078775;28;25072;-60
2022/06/21 03:33:48;;;;;;;22.90;9.38;;;12.80;99.90;;;;;;5086629;28;25052;-60
2022/06/21 03:36:17;;;;;;;19.60;8.60;;;12.80;99.90;;;;;;5076984;28;25486;-63
2022/06/21 03:38:46;;;;;;;18.52;8.75;;;12.70;99.90;;;;;;5082922;28;25064;-59
2022/06/21 03:44:23;;;;;;;22.63;9.73;;;12.70;99.90;;;;;;5075378;28;25072;-61
2022/06/21 03:47:14;;;;;;;20.30;9.93;;;12.80;99.90;;;;;;5076926;28;25065;-60
2022/06/21 03:49:53;;;;;;;17.90;10.23;;;12.80;99.90;;;;;;5077049;28;25146;-60
2022/06/21 03:52:43;;;;;;;21.08;10.38;;;12.80;99.90;;;;;;5068929;28;25126;-59
2022/06/21 03:55:30;;;;;;;26.55;10.32;;;12.80;99.90;;;;;;5075284;28;25079;-60
2022/06/21 03:58:09;;;;;;;19.77;9.63;;;12.80;99.90;;;;;;5084103;28;25080;-60
2022/06/21 04:00:53;;;;;;;16.17;8.93;;;12.80;99.90;;;;;;5076383;28;25059;-60
2022/06/21 04:03:38;;;;;;;22.35;11.52;;;12.90;99.90;;;;;;5075678;28;25097;-61
2022/06/21 04:06:11;;;;;;;18.85;11.43;;;12.80;99.90;;;;;;5081386;28;25089;-60
2022/06/21 04:08:46;;;;;;;22.15;12.20;;;12.70;99.90;;;;;;5076680;28;25154;-60
2022/06/21 04:11:39;;;;;;;22.13;11.60;;;12.70;99.90;;;;;;5070243;28;25138;-60
2022/06/21 04:14:31;;;;;;;17.73;11.07;;;12.70;99.90;;;;;;5072573;28;25119;-59
2022/06/21 04:17:21;;;;;;;20.52;11.32;;;12.80;99.90;;;;;;5076170;28;25117;-58
2022/06/21 04:19:51;;;;;;;22.73;11.55;;;12.90;99.90;;;;;;5061167;28;25085;-60
2022/06/21 04:22:26;;;;;;;23.92;10.73;;;12.90;99.90;;;;;;5071418;28;25120;-59
2022/06/21 04:25:09;;;;;;;16.10;10.23;;;13.10;99.90;;;;;;5071065;28;25119;-61
2022/06/21 04:27:56;;;;;;;18.50;10.73;;;13.20;99.90;;;;;;5076372;28;25068;-61
2022/06/21 04:30:33;;;;;;;16.27;10.80;;;13.10;99.90;;;;;;5079180;28;25061;-60
2022/06/21 04:33:17;;;;;;;22.58;11.63;;;13.10;99.90;;;;;;5081674;28;25047;-61
2022/06/21 04:35:52;;;;;;;20.35;11.20;;;13.10;99.90;;;;;;5068578;28;25086;-60
2022/06/21 04:38:25;;;;;;;20.42;11.32;;;13.20;99.90;;;;;;5076403;28;25049;-59
2022/06/21 04:40:58;;;;;;;20.63;10.85;;;13.20;99.90;;;;;;5084357;28;25062;-60
2022/06/21 04:43:42;;;;;;;23.08;12.73;;;13.20;99.90;;;;;;5073463;28;25087;-60
2022/06/21 04:46:19;;;;;;;22.33;11.52;;;13.30;99.90;;;;;;5076594;28;25068;-60
2022/06/21 04:49:12;;;;;;;17.98;11.18;;;13.30;99.90;;;;;;5079976;28;25062;-59
2022/06/21 04:52:08;;;;;;;18.65;10.80;;;13.30;99.90;;;;;;5078551;28;25099;-59
2022/06/21 04:54:36;;;;;;;24.60;11.07;;;13.40;99.90;;;;;;5074234;28;25148;-60
2022/06/21 04:57:18;;;;;;;18.60;9.77;;;13.50;99.90;;;;;;5084563;28;25081;-60
2022/06/21 04:59:51;;;;;;;18.40;9.35;;;13.60;99.90;;;;;;5074994;28;25097;-59
2022/06/21 05:02:40;;;;;;;16.88;10.27;;;13.70;99.90;;;;;;5074967;28;25111;-60
2022/06/21 05:05:19;;;;;;;19.15;9.32;;;13.90;99.90;;;;;;5067010;28;25076;-59
2022/06/21 05:07:54;;;;;;;13.25;8.82;;;13.90;99.90;;;;;;5062570;28;25116;-60
2022/06/21 05:10:24;;;;;;;19.10;8.52;;;14.00;99.90;;;;;;5076274;28;25071;-60
2022/06/21 05:12:52;;;;;;;15.23;7.05;;;14.10;99.90;;;;;;5081967;28;25097;-60
2022/06/21 05:15:26;;;;;;;15.30;6.68;;;14.30;99.90;;;;;;5078420;28;25050;-60
2022/06/21 05:18:05;;;;;;;14.07;6.88;;;14.50;99.90;;;;;;5077650;28;25167;-60
2022/06/21 05:20:35;;;;;;;16.98;6.47;;;14.40;99.90;;;;;;5072100;28;25117;-61
2022/06/21 05:23:05;;;;;;;11.70;5.57;;;14.50;99.90;;;;;;5070293;28;25119;-60
2022/06/21 05:25:36;;;;;;;13.90;6.10;;;14.40;99.90;;;;;;5062398;28;25080;-60
2022/06/21 05:28:25;;;;;;;13.82;5.65;;;14.40;99.90;;;;;;5073173;28;25075;-59
2022/06/21 05:30:54;;;;;;;13.20;5.35;;;14.40;99.90;;;;;;5068599;28;25053;-61
2022/06/21 05:33:27;;;;;;;11.40;5.85;;;14.50;99.90;;;;;;5068163;28;25066;-61
2022/06/21 05:35:53;;;;;;;18.88;8.02;;;14.40;99.90;;;;;;5074117;28;25096;-61
2022/06/21 05:38:25;;;;;;;15.27;5.40;;;14.50;99.90;;;;;;5082125;28;25110;-61
2022/06/21 05:40:58;;;;;;;12.50;6.20;;;14.60;99.90;;;;;;5071890;28;25071;-60
2022/06/21 05:43:47;;;;;;;13.25;6.15;;;14.70;99.90;;;;;;5071196;28;25124;-59
2022/06/21 05:46:20;;;;;;;13.90;6.15;;;14.90;99.90;;;;;;5081161;28;25062;-61
2022/06/21 05:48:46;;;;;;;12.50;5.60;;;15.00;99.90;;;;;;5078578;28;25053;-60
2022/06/21 05:51:27;;;;;;;12.50;5.65;;;15.10;99.90;;;;;;5070041;28;25135;-60
2022/06/21 05:54:04;;;;;;;13.75;6.32;;;15.20;99.90;;;;;;5071378;28;25060;-61
2022/06/21 05:56:31;;;;;;;13.88;6.15;;;15.30;99.90;;;;;;5072383;28;25113;-60
2022/06/21 05:59:01;;;;;;;17.92;6.05;;;15.30;99.90;;;;;;5073079;28;25146;-62
2022/06/21 06:02:03;;;;;;;13.75;6.00;;;15.40;99.90;;;;;;5076293;28;25063;-60
2022/06/21 06:04:44;;;;;;;11.63;5.47;;;15.60;99.90;;;;;;5072264;28;25091;-60
2022/06/21 06:07:21;;;;;;;8.65;5.22;;;15.80;99.90;;;;;;5075756;28;25053;-61
2022/06/21 06:09:49;;;;;;;15.55;5.85;;;15.90;99.90;;;;;;5070596;28;25144;-60
2022/06/21 06:12:21;;;;;;;18.33;6.35;;;16.00;99.90;;;;;;5082314;28;25068;-61
2022/06/21 06:15:06;;;;;;;9.20;5.75;;;16.30;99.90;;;;;;5074581;28;25120;-60
2022/06/21 06:17:44;;;;;;;15.95;5.13;;;16.50;99.90;;;;;;5068977;28;25050;-61
2022/06/21 06:20:29;;;;;;;12.98;4.40;;;16.60;99.90;;;;;;5059754;28;25077;-61
2022/06/21 06:22:57;;;;;;;8.30;4.85;;;17.00;99.90;;;;;;5074001;28;25057;-61
2022/06/21 06:25:32;;;;;;;13.32;5.57;;;16.90;99.90;;;;;;5070217;28;25056;-60
2022/06/21 06:28:01;;;;;;;9.45;4.63;;;17.00;99.90;;;;;;5074347;28;25074;-60
2022/06/21 06:30:34;;;;;;;12.70;4.28;;;17.10;99.90;;;;;;5075498;28;25046;-60
2022/06/21 06:33:26;;;;;;;10.18;4.60;;;17.30;99.90;;;;;;5076907;28;25153;-61
2022/06/21 06:35:55;;;;;;;11.57;5.25;;;17.30;99.90;;;;;;5076440;28;25071;-60
2022/06/21 06:38:20;;;;;;;12.98;4.03;;;17.30;99.90;;;;;;5074046;28;25074;-60
2022/06/21 06:41:03;;;;;;;5.78;3.83;;;17.50;99.90;;;;;;5072506;28;25144;-61
2022/06/21 06:43:47;;;;;;;8.63;3.70;;;17.60;99.90;;;;;;5064475;28;25058;-60
2022/06/21 06:46:28;;;;;;;12.57;3.97;;;17.90;99.90;;;;;;5071650;28;25132;-60
2022/06/21 06:49:25;;;;;;;9.35;3.85;;;17.90;99.90;;;;;;5069531;28;25096;-60
2022/06/21 06:51:57;;;;;;;8.88;3.38;;;18.00;99.90;;;;;;5077217;28;25105;-60
2022/06/21 06:54:32;;;;;;;9.98;3.38;;;18.20;99.90;;;;;;5079882;28;25095;-60
2022/06/21 06:57:24;;;;;;;7.60;3.00;;;18.20;99.90;;;;;;5075835;28;25078;-61
2022/06/21 06:59:49;;;;;;;8.05;3.00;;;18.50;99.90;;;;;;5068715;28;25061;-60
2022/06/21 07:02:21;;;;;;;7.05;2.92;;;18.80;99.90;;;;;;5070524;28;25052;-61
2022/06/21 07:04:54;;;;;;;5.25;3.10;;;18.90;99.90;;;;;;5069073;28;25105;-60
2022/06/21 07:07:33;;;;;;;8.15;2.92;;;19.10;99.90;;;;;;5067720;28;25168;-61
2022/06/21 07:10:04;;;;;;;10.68;2.83;;;19.10;99.90;;;;;;5073462;28;25159;-62
2022/06/21 07:12:30;;;;;;;7.95;2.50;;;19.20;99.90;;;;;;5058661;28;25165;-60
2022/06/21 07:14:57;;;;;;;12.43;2.60;;;19.30;99.90;;;;;;5075141;28;25088;-61
2022/06/21 07:17:45;;;;;;;6.07;2.63;;;19.30;99.90;;;;;;5078607;28;25124;-61
2022/06/21 07:20:22;;;;;;;10.45;2.35;;;19.40;99.90;;;;;;5073249;28;25130;-60
2022/06/21 07:22:49;;;;;;;6.78;2.30;;;19.80;99.90;;;;;;5078584;28;25079;-61
2022/06/21 07:25:50;;;;;;;8.82;2.75;;;19.80;99.00;;;;;;5075974;28;25064;-60
2022/06/21 07:28:40;;;;;;;10.98;2.95;;;19.70;98.40;;;;;;5074559;28;25109;-60
2022/06/21 07:31:15;;;;;;;9.07;2.70;;;19.70;99.40;;;;;;5077541;28;25081;-61
2022/06/21 07:33:49;;;;;;;7.45;2.60;;;19.90;98.60;;;;;;5075563;28;25063;-60
2022/06/21 07:36:26;;;;;;;9.27;2.88;;;19.20;96.60;;;;;;5076209;28;25075;-60
2022/06/21 07:39:04;;;;;;;4.85;2.20;;;18.70;99.90;;;;;;5073375;28;25051;-61
2022/06/21 07:41:37;;;;;;;8.40;2.42;;;18.60;99.90;;;;;;5072069;28;25081;-61
2022/06/21 07:44:14;;;;;;;9.98;3.17;;;18.60;99.90;;;;;;5078913;28;25108;-61
2022/06/21 07:46:48;;;;;;;6.95;3.05;;;19.20;99.90;;;;;;5073649;28;25073;-61
2022/06/21 07:49:20;;;;;;;10.27;2.53;;;19.30;99.90;;;;;;5069387;28;25138;-60
2022/06/21 07:51:50;;;;;;;5.77;2.40;;;19.70;99.10;;;;;;5072022;28;25092;-61
2022/06/21 07:54:27;;;;;;;9.57;2.78;;;19.80;96.20;;;;;;5073704;28;25179;-61
2022/06/21 07:57:03;;;;;;;8.50;2.40;;;19.50;99.90;;;;;;5068229;28;25079;-60
2022/06/21 07:59:36;;;;;;;5.80;2.83;;;19.90;99.10;;;;;;5069829;28;25083;-60
2022/06/21 08:07:43;;;;;;;8.07;2.60;;;20.30;94.50;;;;;;5070673;28;25125;-60
2022/06/21 08:10:22;;;;;;;5.53;2.40;;;20.30;93.90;;;;;;5056302;28;25068;-61
2022/06/21 08:12:49;;;;;;;6.47;2.63;;;20.60;93.70;;;;;;5072912;28;25129;-61
2022/06/21 08:15:15;;;;;;;6.47;2.58;;;20.90;93.40;;;;;;5068809;28;25145;-62
2022/06/21 08:17:57;;;;;;;6.78;2.90;;;21.00;88.80;;;;;;5071718;28;25114;-61
2022/06/21 08:20:29;;;;;;;8.95;2.97;;;20.60;90.60;;;;;;5073286;28;25102;-61
2022/06/21 08:23:10;;;;;;;6.95;2.47;;;20.60;92.10;;;;;;5066166;28;25055;-61
2022/06/21 08:26:03;;;;;;;7.60;2.72;;;20.70;91.10;;;;;;5075058;28;25096;-61
2022/06/21 08:28:43;;;;;;;5.50;2.40;;;21.00;90.90;;;;;;5068712;28;25078;-62
2022/06/21 08:31:16;;;;;;;9.85;2.60;;;20.70;86.60;;;;;;5070731;28;25081;-61
2022/06/21 08:33:52;;;;;;;7.25;2.40;;;20.90;90.80;;;;;;5080924;28;25139;-60
2022/06/21 08:36:25;;;;;;;12.75;2.60;;;20.90;83.90;;;;;;5071404;28;24969;-62
2022/06/21 08:39:02;;;;;;;3.42;2.17;;;21.40;82.90;;;;;;5070291;28;25053;-63
2022/06/21 08:41:52;;;;;;;10.52;2.40;;;21.10;74.50;;;;;;5080676;28;25101;-62
2022/06/21 08:48:21;;;;;;;8.77;2.53;;;20.10;84.40;;;;;;5066330;28;25100;-62
2022/06/21 08:51:05;;;;;;;6.25;2.40;;;20.40;90.40;;;;;;5070576;28;25068;-61
2022/06/21 08:54:05;;;;;;;5.70;2.40;;;20.40;85.30;;;;;;5074062;28;25067;-62
2022/06/21 08:56:41;;;;;;;6.38;2.38;;;20.40;88.70;;;;;;5071021;28;25157;-61
2022/06/21 08:59:21;;;;;;;12.18;3.35;;;20.30;87.20;;;;;;5070503;28;25120;-61
2022/06/21 09:01:50;;;;;;;9.85;2.85;;;20.00;85.70;;;;;;5073865;28;25133;-62
2022/06/21 09:04:30;;;;;;;8.63;2.42;;;19.90;87.70;;;;;;5071446;28;25060;-61
2022/06/21 09:07:14;;;;;;;7.65;2.38;;;19.70;89.70;;;;;;5072579;28;25063;-62
2022/06/21 09:09:58;;;;;;;4.75;2.35;;;19.40;91.50;;;;;;5073434;28;25154;-62
2022/06/21 09:12:56;;;;;;;5.22;1.83;;;19.10;92.70;;;;;;5069341;28;25067;-61
2022/06/21 09:15:56;;;;;;;8.85;2.72;;;19.20;94.10;;;;;;5076492;28;25121;-61
2022/06/21 09:18:46;;;;;;;9.40;2.60;;;19.50;92.20;;;;;;5077048;28;25085;-63
2022/06/21 09:21:55;;;;;;;5.35;2.47;;;19.80;92.80;;;;;;5081532;28;25088;-63
2022/06/21 09:24:53;;;;;;;10.85;3.00;;;19.70;92.20;;;;;;5057048;28;25165;-62
2022/06/21 09:27:37;;;;;;;6.45;2.70;;;19.60;92.90;;;;;;5067220;28;25067;-61
2022/06/21 09:30:06;;;;;;;6.43;2.45;;;19.20;93.90;;;;;;5074174;28;25171;-61
2022/06/21 09:32:59;;;;;;;9.52;2.70;;;19.80;95.60;;;;;;5060518;28;25068;-61
2022/06/21 09:35:54;;;;;;;4.03;2.45;;;20.50;90.70;;;;;;5075640;22;25128;-65
2022/06/21 09:38:52;;;;;;;6.30;2.28;;;20.80;83.10;;;;;;5083508;28;25079;-65
2022/06/21 09:41:31;;;;;;;3.00;1.75;;;20.20;79.10;;;;;;5079223;28;25072;-65
2022/06/21 09:44:22;;;;;;;4.57;2.42;;;20.40;87.80;;;;;;5073673;28;25076;-64
2022/06/21 09:47:13;;;;;;;7.80;2.60;;;20.70;83.10;;;;;;5058523;28;24994;-66
2022/06/21 09:50:12;;;;;;;9.23;2.50;;;21.20;75.50;;;;;;5067402;28;25066;-65
2022/06/21 09:53:01;;;;;;;12.80;2.75;;;21.10;70.90;;;;;;5076613;28;25052;-64
2022/06/21 09:55:49;;;;;;;9.43;2.60;;;21.70;77.30;;;;;;5089830;28;25160;-64
2022/06/21 09:58:26;;;;;;;5.80;2.60;;;22.60;58.60;;;;;;5089953;28;25058;-63
2022/06/21 10:01:02;;;;;;;4.40;2.33;;;22.30;55.40;;;;;;5076927;28;25075;-65
2022/06/21 10:03:48;;;;;;;5.63;2.40;;;23.20;52.50;;;;;;5069938;28;25047;-65
2022/06/21 10:06:33;;;;;;;7.00;2.63;;;22.90;48.50;;;;;;5067385;28;25075;-65
2022/06/21 10:09:19;;;;;;;10.48;2.50;;;23.00;51.00;;;;;;5068144;28;25090;-65
2022/06/21 10:11:54;;;;;;;7.15;2.72;;;22.50;49.70;;;;;;5085891;28;25115;-65
2022/06/21 10:14:30;;;;;;;6.88;2.40;;;22.10;52.60;;;;;;5079840;28;25108;-64
2022/06/21 10:17:20;;;;;;;8.23;2.80;;;21.70;61.70;;;;;;5071680;28;25065;-65
2022/06/21 10:20:27;;;;;;;4.93;3.30;;;21.30;60.60;;;;;;5066958;28;25089;-65
2022/06/21 10:23:07;;;;;;;10.00;2.72;;;20.60;63.00;;;;;;5037256;28;25068;-64
2022/06/21 10:25:44;;;;;;;6.22;2.70;;;20.70;64.80;;;;;;5080645;28;25081;-64
2022/06/21 10:28:23;;;;;;;5.38;2.95;;;20.60;60.70;;;;;;5077588;28;25100;-68
2022/06/21 10:31:15;;;;;;;8.30;2.90;;;20.40;62.30;;;;;;5071147;28;25060;-64
2022/06/21 10:34:11;;;;;;;4.37;2.73;;;20.70;62.50;;;;;;5080594;28;25067;-64
2022/06/21 10:37:14;;;;;;;7.53;3.60;;;21.10;55.60;;;;;;5078357;28;25107;-62
2022/06/21 10:39:49;;;;;;;5.70;3.22;;;20.60;61.60;;;;;;5071272;28;25070;-63
2022/06/21 10:43:06;;;;;;;9.18;3.95;;;20.80;68.70;;;;;;5055978;28;25093;-65
2022/06/21 10:45:58;;;;;;;7.50;3.33;;;20.60;60.30;;;;;;4993974;28;25125;-65
2022/06/21 10:48:42;;;;;;;6.43;3.33;;;20.50;61.80;;;;;;5071379;28;25075;-66
2022/06/21 10:51:21;;;;;;;6.45;3.47;;;20.20;69.10;;;;;;5077846;28;25099;-65
2022/06/21 10:54:01;;;;;;;8.88;4.20;;;19.80;73.40;;;;;;5078791;28;25079;-64
2022/06/21 10:57:09;;;;;;;8.80;3.28;;;19.30;78.60;;;;;;5089049;28;25116;-65
2022/06/21 11:02:47;;;;;;;8.85;3.67;;;20.10;79.10;;;;;;5077037;28;25047;-64
2022/06/21 11:05:24;;;;;;;12.52;4.63;;;20.40;78.60;;;;;;5072784;28;25061;-65
2022/06/21 11:07:57;;;;;;;8.05;4.32;;;20.90;71.00;;;;;;5084132;28;25114;-65
2022/06/21 11:10:24;;;;;;;;;;;20.60;70.80;;;;;;5076261;28;25146;-65
2022/06/21 11:12:53;;;;;;;5.57;2.85;;;20.80;74.90;;;;;;5085082;28;24108;-64
2022/06/21 11:15:22;;;;;;;6.65;3.35;;;20.70;69.20;;;;;;5078320;28;25076;-63
2022/06/21 11:18:06;;;;;;;8.45;3.38;;;20.30;73.90;;;;;;5074562;28;25077;-64
2022/06/21 11:20:48;;;;;;;8.48;3.47;;;20.40;75.90;;;;;;5075711;28;25064;-64
2022/06/21 11:23:18;;;;;;;8.18;3.30;;;20.80;78.20;;;;;;5078718;28;25051;-64
2022/06/21 11:25:52;;;;;;;7.10;3.00;;;21.20;76.20;;;;;;5077497;28;25062;-65
2022/06/21 11:28:54;;;;;;;5.78;2.90;;;21.60;69.20;;;;;;5077330;28;25127;-65
2022/06/21 11:31:45;;;;;;;6.35;2.90;;;21.70;64.80;;;;;;5089929;28;25143;-67
2022/06/21 11:34:30;;;;;;;8.60;2.75;;;21.80;66.00;;;;;;5089648;28;25143;-65
2022/06/21 11:37:22;;;;;;;7.57;3.10;;;21.60;61.80;;;;;;5091591;28;25138;-65
2022/06/21 11:39:55;;;;;;;8.57;3.30;;;21.30;63.70;;;;;;5078489;28;25082;-65
2022/06/21 11:42:25;;;;;;;8.00;3.38;;;21.20;60.70;;;;;;5084067;28;25055;-65
2022/06/21 11:45:15;;;;;;;4.95;3.50;;;21.30;62.60;;;;;;5074456;28;25128;-66
2022/06/21 11:47:56;;;;;;;5.13;3.10;;;21.00;63.10;;;;;;5079250;28;25523;-66
2022/06/21 11:50:37;;;;;;;6.15;3.35;;;21.30;69.30;;;;;;5057940;28;25072;-65
2022/06/21 11:53:40;;;;;;;7.43;3.03;;;21.30;59.60;;;;;;5068863;28;25060;-66
2022/06/21 11:56:16;;;;;;;8.77;3.42;;;21.10;59.10;;;;;;5073015;28;25090;-65
2022/06/21 11:58:55;;;;;;;7.45;3.05;;;20.70;60.50;;;;;;5074332;28;25139;-66
2022/06/21 12:01:36;;;;;;;7.43;3.00;;;20.60;65.80;;;;;;5074981;28;25128;-65
2022/06/21 12:04:24;;;;;;;5.60;3.67;;;21.00;69.90;;;;;;5050549;28;25074;-65
2022/06/21 12:07:07;;;;;;;6.88;2.75;;;21.10;66.50;;;;;;5074374;28;25107;-65
2022/06/21 12:09:42;;;;;;;9.45;2.67;;;21.00;63.50;;;;;;5081719;28;25062;-64
2022/06/21 12:12:10;;;;;;;6.88;2.70;;;21.20;63.60;;;;;;5058342;28;25079;-65
2022/06/21 12:15:06;;;;;;;10.48;3.63;;;21.30;66.00;;;;;;5080081;28;25132;-64
2022/06/21 12:17:54;;;;;;;8.35;4.07;;;21.00;58.30;;;;;;5065361;28;25069;-64
2022/06/21 12:20:24;;;;;;;10.00;3.88;;;20.80;59.60;;;;;;5077797;28;25118;-65
2022/06/21 12:22:58;;;;;;;6.47;3.25;;;21.10;68.20;;;;;;5069036;28;25129;-66
2022/06/21 12:25:24;;;;;;;5.43;3.38;;;21.40;62.20;;;;;;5076640;28;25153;-65
2022/06/21 12:27:52;;;;;;;5.43;3.55;;;21.30;58.90;;;;;;5077456;28;25157;-64
2022/06/21 12:30:25;;;;;;;9.55;4.18;;;21.40;65.60;;;;;;5079984;28;25139;-65
2022/06/21 12:32:59;;;;;;;8.30;4.10;;;21.30;58.20;;;;;;5085659;28;25124;-67
2022/06/21 12:35:43;;;;;;;6.60;3.90;;;21.40;51.20;;;;;;5056614;28;25073;-65
2022/06/21 12:38:13;;;;;;;8.25;3.53;;;21.70;52.30;;;;;;5087812;28;25119;-66
2022/06/21 12:41:14;;;;;;;9.35;3.85;;;22.10;54.00;;;;;;5075344;28;25074;-65
2022/06/21 12:43:56;;;;;;;6.00;3.40;;;22.40;46.90;;;;;;5077512;28;25090;-65
2022/06/21 12:46:38;;;;;;;6.25;3.08;;;21.90;28.30;;;;;;5076959;28;25143;-67
2022/06/21 12:49:25;;;;;;;6.82;3.50;;;21.50;33.10;;;;;;5073671;28;25054;-65
2022/06/21 12:52:01;;;;;;;6.78;3.33;;;21.10;36.90;;;;;;5067194;28;25067;-66
2022/06/21 12:54:26;;;;;;;8.18;3.80;;;20.80;51.30;;;;;;5068754;28;25067;-65
2022/06/21 12:57:04;;;;;;;7.65;4.00;;;21.10;57.30;;;;;;5056556;28;25056;-64
2022/06/21 12:59:51;;;;;;;5.75;3.80;;;21.50;62.10;;;;;;5071046;28;25097;-66
2022/06/21 13:02:37;;;;;;;7.13;4.32;;;21.70;61.10;;;;;;5078263;28;25103;-64
2022/06/21 13:05:27;;;;;;;10.43;3.95;;;21.70;48.60;;;;;;5076687;28;25111;-65
2022/06/21 13:08:24;;;;;;;9.70;4.57;;;21.30;56.50;;;;;;5067445;28;25073;-65
2022/06/21 13:10:55;;;;;;;9.32;4.00;;;21.10;64.00;;;;;;5077393;28;25085;-65
2022/06/21 13:13:28;;;;;;;6.30;4.10;;;21.30;63.80;;;;;;5086365;28;25163;-64
2022/06/21 13:16:10;;;;;;;7.82;3.97;;;21.30;59.50;;;;;;5075127;28;25070;-65
2022/06/21 13:18:45;;;;;;;10.25;4.05;;;21.40;63.90;;;;;;5082597;28;25103;-66
2022/06/21 13:21:36;;;;;;;9.23;3.55;;;21.70;62.10;;;;;;5078170;28;25097;-67
2022/06/21 13:24:21;;;;;;;7.07;4.10;;;21.90;58.60;;;;;;5081940;28;25150;-65
2022/06/21 13:27:06;;;;;;;8.20;4.10;;;22.00;57.60;;;;;;5055276;28;25069;-64
2022/06/21 13:29:54;;;;;;;9.05;4.63;;;21.50;57.50;;;;;;5059089;28;25061;-67
2022/06/21 13:32:25;;;;;;;10.10;4.78;;;21.30;61.60;;;;;;5072094;28;25075;-68
2022/06/21 13:34:56;;;;;;;8.40;4.00;;;21.30;65.10;;;;;;5066731;28;25078;-64
2022/06/21 13:37:33;;;;;;;8.43;3.85;;;21.30;67.70;;;;;;5091035;28;25084;-64
2022/06/21 13:40:19;;;;;;;8.45;3.80;;;21.30;67.50;;;;;;5082025;28;25078;-65
2022/06/21 13:43:10;;;;;;;8.07;4.10;;;21.60;65.10;;;;;;5087000;28;25116;-63
2022/06/21 13:45:49;;;;;;;9.38;4.57;;;21.80;61.70;;;;;;5058131;28;25186;-67
2022/06/21 13:48:29;;;;;;;7.90;4.43;;;21.90;63.20;;;;;;5083092;28;25072;-66
2022/06/21 13:51:26;;;;;;;10.82;3.67;;;21.90;64.30;;;;;;5080458;28;25101;-66
2022/06/21 13:54:12;;;;;;;10.27;3.67;;;22.30;58.40;;;;;;5054145;28;25079;-67